Time;durP1;ratioP1;P1;durP2;ratioP2;P2;SDS_P1;SDS_P2;PMS_P1;PMS_P2;Temp;Humidity;BMP_temperature;BMP_pressure;BME280_temperature;BME280_humidity;BME280_pressure;Samples;Min_cycle;Max_cycle;Signal;HPM_P1;HPM_P2
2023/09/17 00:00:32;;;;;;;27.35;22.83;;;16.10;99.90;;;;;;5051167;28;20520;-74
2023/09/17 00:02:58;;;;;;;25.67;22.23;;;16.00;99.90;;;;;;5035789;28;20953;-75
2023/09/17 00:05:24;;;;;;;25.00;22.33;;;15.80;99.90;;;;;;5067208;28;20428;-75
2023/09/17 00:07:50;;;;;;;26.55;23.33;;;15.70;99.90;;;;;;5034893;28;20944;-74
2023/09/17 00:10:16;;;;;;;26.70;23.17;;;15.70;99.90;;;;;;5053290;28;20559;-75
2023/09/17 00:12:42;;;;;;;27.70;23.50;;;15.60;99.90;;;;;;5035221;28;20514;-74
2023/09/17 00:15:08;;;;;;;27.35;22.70;;;15.80;99.90;;;;;;5034740;28;20443;-75
2023/09/17 00:17:33;;;;;;;29.63;23.90;;;15.60;99.90;;;;;;5062650;28;20423;-75
2023/09/17 00:19:59;;;;;;;28.90;23.97;;;15.90;99.90;;;;;;5039479;28;20785;-74
2023/09/17 00:22:25;;;;;;;24.98;22.08;;;15.60;99.90;;;;;;5031758;28;20436;-75
2023/09/17 00:24:50;;;;;;;26.88;24.02;;;15.90;99.90;;;;;;5046471;28;20501;-76
2023/09/17 00:27:16;;;;;;;27.73;23.08;;;15.70;99.90;;;;;;5053441;28;20894;-75
2023/09/17 00:29:42;;;;;;;26.83;23.93;;;15.80;99.90;;;;;;5050942;28;20475;-75
2023/09/17 00:32:08;;;;;;;26.90;23.83;;;15.80;99.90;;;;;;5051281;28;20425;-75
2023/09/17 00:34:33;;;;;;;28.40;24.13;;;15.60;99.90;;;;;;5053501;28;20430;-75
2023/09/17 00:37:02;;;;;;;28.38;24.73;;;15.70;99.90;;;;;;5033496;28;20482;-75
2023/09/17 00:39:28;;;;;;;26.70;23.90;;;15.70;99.90;;;;;;5017203;28;20421;-75
2023/09/17 00:41:54;;;;;;;26.83;23.92;;;15.40;99.90;;;;;;5049838;28;20428;-75
2023/09/17 00:44:20;;;;;;;26.88;23.95;;;15.60;99.90;;;;;;5053940;28;20436;-75
2023/09/17 00:46:47;;;;;;;27.77;23.73;;;15.50;99.90;;;;;;5049565;28;20453;-75
2023/09/17 00:49:14;;;;;;;28.02;24.23;;;15.70;99.90;;;;;;5036044;28;20446;-75
2023/09/17 00:51:41;;;;;;;27.90;24.27;;;15.60;99.90;;;;;;5033183;28;20474;-75
2023/09/17 00:54:09;;;;;;;28.52;23.30;;;15.80;99.90;;;;;;5046784;28;20421;-75
2023/09/17 00:56:36;;;;;;;27.05;23.90;;;15.80;99.90;;;;;;5049238;28;20417;-75
2023/09/17 00:59:04;;;;;;;27.83;23.90;;;15.60;99.90;;;;;;5017939;28;20475;-75
2023/09/17 01:01:30;;;;;;;29.98;25.58;;;15.60;99.90;;;;;;5052596;28;20831;-75
2023/09/17 01:03:56;;;;;;;29.48;24.83;;;15.50;99.90;;;;;;5027741;28;20516;-75
2023/09/17 01:06:22;;;;;;;32.10;26.25;;;15.70;99.90;;;;;;5031143;28;20459;-75
2023/09/17 01:08:48;;;;;;;29.98;25.92;;;15.60;99.90;;;;;;5033689;28;20417;-75
2023/09/17 01:11:14;;;;;;;30.92;26.33;;;15.50;99.90;;;;;;5051928;28;20409;-76
2023/09/17 01:13:42;;;;;;;29.58;26.02;;;15.50;99.90;;;;;;5045702;28;20442;-76
2023/09/17 01:16:09;;;;;;;29.13;26.02;;;15.30;99.90;;;;;;5045365;28;20422;-75
2023/09/17 01:18:35;;;;;;;29.40;25.57;;;15.40;99.90;;;;;;5033000;28;20929;-75
2023/09/17 01:21:22;;;;;;;28.38;24.98;;;15.50;99.90;;;;;;5049152;28;20417;-76
2023/09/17 01:24:20;;;;;;;30.08;25.50;;;15.40;99.90;;;;;;5050100;28;20424;-75
2023/09/17 01:27:13;;;;;;;30.48;25.08;;;15.50;99.90;;;;;;5045300;28;20423;-75
2023/09/17 01:29:41;;;;;;;31.17;25.73;;;15.50;99.90;;;;;;5050958;28;20416;-75
2023/09/17 01:32:08;;;;;;;29.30;26.08;;;15.30;99.90;;;;;;5052807;28;20426;-75
2023/09/17 01:34:37;;;;;;;30.00;25.63;;;15.60;99.90;;;;;;5049200;28;20932;-75
2023/09/17 01:37:08;;;;;;;28.53;25.27;;;15.50;99.90;;;;;;5055518;28;20471;-75
2023/09/17 01:39:41;;;;;;;30.65;26.70;;;15.40;99.90;;;;;;5052386;28;20401;-75
2023/09/17 01:42:08;;;;;;;30.25;25.85;;;15.50;99.90;;;;;;5082980;28;20752;-76
2023/09/17 01:44:34;;;;;;;29.75;25.63;;;15.50;99.90;;;;;;5055684;28;20457;-75
2023/09/17 01:47:03;;;;;;;29.50;25.42;;;15.60;99.90;;;;;;5042821;28;20403;-75
2023/09/17 01:49:32;;;;;;;26.92;24.02;;;15.50;99.90;;;;;;5038215;28;20516;-75
2023/09/17 01:51:58;;;;;;;31.47;26.80;;;15.50;99.90;;;;;;5051453;28;20417;-75
2023/09/17 01:54:24;;;;;;;31.57;25.60;;;15.50;99.90;;;;;;5048888;28;20471;-75
2023/09/17 01:56:50;;;;;;;29.10;24.48;;;15.50;99.90;;;;;;5083571;28;20425;-75
2023/09/17 01:59:15;;;;;;;27.58;24.55;;;15.40;99.90;;;;;;5065435;28;20433;-75
2023/09/17 02:01:42;;;;;;;30.10;26.23;;;15.40;99.90;;;;;;5065199;28;20425;-75
2023/09/17 02:04:08;;;;;;;31.08;26.45;;;15.20;99.90;;;;;;5048552;28;20425;-75
2023/09/17 02:06:36;;;;;;;32.03;26.52;;;;;;;;;;5032323;28;20428;-76
2023/09/17 02:09:05;;;;;;;34.38;28.48;;;;;;;;;;5043781;28;20431;-77
2023/09/17 02:11:31;;;;;;;32.47;27.58;;;15.40;99.90;;;;;;5096764;28;20451;-75
2023/09/17 02:13:57;;;;;;;33.25;27.70;;;15.40;99.90;;;;;;5019874;28;20440;-75
2023/09/17 02:16:23;;;;;;;31.67;27.17;;;15.30;99.90;;;;;;5054555;28;20421;-76
2023/09/17 02:18:51;;;;;;;34.15;28.75;;;15.50;99.90;;;;;;5086699;28;20425;-75
2023/09/17 02:21:16;;;;;;;31.77;27.53;;;15.60;99.90;;;;;;5035690;28;20448;-75
2023/09/17 02:23:44;;;;;;;33.90;27.20;;;15.50;99.90;;;;;;5038031;28;20989;-76
2023/09/17 02:26:10;;;;;;;32.30;28.08;;;15.30;99.90;;;;;;5029808;28;20432;-75
2023/09/17 02:28:35;;;;;;;34.45;28.20;;;15.50;99.90;;;;;;5070588;28;20764;-75
2023/09/17 02:31:02;;;;;;;32.73;26.33;;;15.70;99.90;;;;;;5042275;28;20415;-75
2023/09/17 02:33:30;;;;;;;32.63;28.45;;;15.80;99.90;;;;;;5087058;28;20418;-75
2023/09/17 02:35:56;;;;;;;32.97;27.25;;;15.50;99.90;;;;;;5074639;28;20946;-76
2023/09/17 02:38:22;;;;;;;33.37;28.50;;;15.50;99.90;;;;;;5054787;28;20467;-75
2023/09/17 02:40:48;;;;;;;36.20;29.50;;;15.50;99.90;;;;;;5021313;28;20441;-75
2023/09/17 02:43:14;;;;;;;35.17;28.98;;;15.80;99.90;;;;;;5051580;28;20509;-75
2023/09/17 02:45:39;;;;;;;38.05;30.35;;;15.80;99.90;;;;;;5067985;28;20428;-75
2023/09/17 02:48:06;;;;;;;37.20;31.15;;;15.70;99.90;;;;;;5055102;28;20417;-75
2023/09/17 02:50:31;;;;;;;37.33;30.73;;;15.80;99.90;;;;;;5086880;28;20413;-75
2023/09/17 02:52:58;;;;;;;37.77;30.90;;;15.60;99.90;;;;;;5052858;28;20576;-75
2023/09/17 02:55:23;;;;;;;37.70;31.43;;;15.90;99.90;;;;;;5047558;28;20420;-76
2023/09/17 02:57:49;;;;;;;37.10;31.80;;;15.90;99.90;;;;;;5049097;28;20427;-75
2023/09/17 03:00:17;;;;;;;38.60;31.50;;;15.80;99.90;;;;;;5050540;28;20443;-75
2023/09/17 03:02:47;;;;;;;43.15;31.60;;;16.00;99.90;;;;;;5036984;28;20436;-75
2023/09/17 03:05:14;;;;;;;42.70;33.22;;;15.90;99.90;;;;;;5055900;28;20417;-75
2023/09/17 03:07:41;;;;;;;39.42;33.15;;;15.80;99.90;;;;;;5052090;28;20492;-75
2023/09/17 03:10:07;;;;;;;39.45;32.58;;;15.80;99.90;;;;;;5052023;28;20838;-75
2023/09/17 03:12:33;;;;;;;42.40;33.75;;;15.70;99.90;;;;;;5048619;28;20812;-75
2023/09/17 03:14:59;;;;;;;40.80;31.77;;;16.10;99.90;;;;;;5068982;28;20448;-75
2023/09/17 03:17:24;;;;;;;40.97;33.03;;;16.00;99.90;;;;;;5035023;28;20438;-75
2023/09/17 03:19:51;;;;;;;40.97;33.63;;;15.80;99.90;;;;;;5051849;28;20495;-75
2023/09/17 03:22:17;;;;;;;41.45;34.17;;;16.00;99.90;;;;;;5056265;28;20423;-75
2023/09/17 03:24:43;;;;;;;43.13;35.22;;;15.90;99.90;;;;;;5046106;28;20419;-75
2023/09/17 03:27:08;;;;;;;47.20;36.07;;;15.80;99.90;;;;;;5054739;28;20420;-75
2023/09/17 03:29:34;;;;;;;44.63;35.83;;;15.90;99.90;;;;;;5055411;28;20753;-75
2023/09/17 03:32:00;;;;;;;47.13;37.08;;;15.60;99.90;;;;;;5066958;28;20421;-75
2023/09/17 03:34:26;;;;;;;49.70;37.83;;;15.80;99.90;;;;;;5051161;28;20428;-75
2023/09/17 03:36:51;;;;;;;47.75;37.60;;;15.70;99.90;;;;;;5045562;28;20420;-76
2023/09/17 03:39:17;;;;;;;46.63;37.45;;;15.60;99.90;;;;;;5036528;28;20781;-75
2023/09/17 03:41:43;;;;;;;51.47;38.72;;;15.50;99.90;;;;;;5018889;28;20425;-75
2023/09/17 03:44:11;;;;;;;47.40;37.43;;;15.60;99.90;;;;;;5049390;28;20417;-76
2023/09/17 03:46:37;;;;;;;50.28;38.13;;;15.50;99.90;;;;;;5032605;28;20414;-75
2023/09/17 03:49:04;;;;;;;48.58;38.08;;;15.50;99.90;;;;;;5033916;28;20403;-75
2023/09/17 03:51:30;;;;;;;51.95;37.17;;;15.50;99.90;;;;;;5047703;28;20440;-76
2023/09/17 03:53:56;;;;;;;52.60;38.03;;;15.60;99.90;;;;;;5054840;28;20438;-75
2023/09/17 03:56:23;;;;;;;51.20;38.17;;;15.60;99.90;;;;;;5056322;28;20452;-76
2023/09/17 03:58:52;;;;;;;52.15;37.40;;;15.70;99.90;;;;;;5036902;28;20428;-76
2023/09/17 04:01:19;;;;;;;51.53;37.97;;;15.60;99.90;;;;;;5044346;28;20554;-76
2023/09/17 04:03:45;;;;;;;48.38;36.88;;;15.70;99.90;;;;;;5084461;28;20793;-76
2023/09/17 04:06:10;;;;;;;51.33;39.42;;;15.70;99.90;;;;;;5029775;28;20423;-76
2023/09/17 04:08:36;;;;;;;51.90;37.35;;;15.60;99.90;;;;;;5051504;28;20420;-76
2023/09/17 04:11:04;;;;;;;49.72;37.55;;;15.50;99.90;;;;;;5020665;28;20436;-75
2023/09/17 04:13:30;;;;;;;50.93;38.87;;;15.70;99.90;;;;;;5051707;28;20495;-75
2023/09/17 04:15:56;;;;;;;46.70;37.47;;;15.60;99.90;;;;;;5048904;28;20417;-75
2023/09/17 04:18:21;;;;;;;50.53;37.25;;;15.60;99.90;;;;;;5052659;28;20430;-76
2023/09/17 04:20:50;;;;;;;50.63;38.83;;;15.80;99.90;;;;;;5039023;28;20421;-75
2023/09/17 04:23:16;;;;;;;46.45;37.15;;;15.80;99.90;;;;;;5049691;28;20429;-76
2023/09/17 04:25:41;;;;;;;51.28;39.17;;;15.60;99.90;;;;;;5089872;28;20810;-76
2023/09/17 04:28:08;;;;;;;49.03;38.10;;;15.60;99.90;;;;;;5055306;28;20461;-76
2023/09/17 04:30:34;;;;;;;50.08;38.83;;;15.90;99.90;;;;;;5051800;28;20673;-76
2023/09/17 04:33:01;;;;;;;48.33;37.55;;;15.60;99.90;;;;;;5036087;28;20503;-75
2023/09/17 04:35:27;;;;;;;50.42;38.78;;;15.70;99.90;;;;;;5037804;28;20429;-76
2023/09/17 04:37:52;;;;;;;50.33;39.07;;;15.70;99.90;;;;;;5033297;28;20491;-76
2023/09/17 04:40:18;;;;;;;53.50;39.60;;;15.70;99.90;;;;;;5038259;28;20434;-76
2023/09/17 04:42:45;;;;;;;52.33;39.85;;;15.90;99.90;;;;;;5021707;28;20754;-76
2023/09/17 04:45:16;;;;;;;52.25;38.97;;;15.80;99.90;;;;;;5050169;28;20413;-76
2023/09/17 04:47:41;;;;;;;55.03;42.72;;;15.90;99.90;;;;;;5030523;28;20503;-76
2023/09/17 04:50:08;;;;;;;57.20;42.88;;;15.60;99.90;;;;;;5043776;28;20502;-76
2023/09/17 04:52:37;;;;;;;62.45;43.20;;;15.80;99.90;;;;;;5024381;28;20425;-76
2023/09/17 04:55:05;;;;;;;56.47;42.53;;;15.70;99.90;;;;;;5071164;28;20796;-76
2023/09/17 04:57:30;;;;;;;58.17;42.72;;;15.90;99.90;;;;;;5036736;28;20443;-76
2023/09/17 04:59:56;;;;;;;58.55;42.70;;;15.80;99.90;;;;;;5033203;28;20917;-76
2023/09/17 05:02:22;;;;;;;59.90;43.35;;;15.70;99.90;;;;;;5051787;28;20425;-75
2023/09/17 05:04:48;;;;;;;60.17;43.33;;;15.80;99.90;;;;;;5063799;28;20442;-76
2023/09/17 05:07:14;;;;;;;58.30;42.90;;;15.90;99.90;;;;;;5030111;28;20755;-76
2023/09/17 05:09:40;;;;;;;60.85;43.83;;;16.20;99.90;;;;;;5050738;28;20408;-76
2023/09/17 05:12:08;;;;;;;58.67;42.00;;;16.20;99.90;;;;;;5032520;28;20620;-75
2023/09/17 05:14:34;;;;;;;57.90;42.65;;;16.10;99.90;;;;;;5050591;28;20408;-75
2023/09/17 05:16:59;;;;;;;61.22;43.20;;;16.20;99.90;;;;;;5089483;28;20970;-75
2023/09/17 05:19:25;;;;;;;63.97;42.60;;;16.20;99.90;;;;;;5057460;28;20552;-76
2023/09/17 05:21:51;;;;;;;60.63;43.57;;;16.10;99.90;;;;;;5031023;28;20782;-75
2023/09/17 05:24:17;;;;;;;58.30;42.58;;;16.30;99.90;;;;;;5052042;28;20468;-76
2023/09/17 05:26:43;;;;;;;59.85;42.58;;;16.30;99.90;;;;;;5052241;28;20412;-75
2023/09/17 05:29:15;;;;;;;60.42;43.65;;;16.20;99.90;;;;;;5056633;28;20997;-76
2023/09/17 05:31:41;;;;;;;63.63;45.23;;;16.00;99.90;;;;;;5049896;28;20417;-75
2023/09/17 05:34:06;;;;;;;65.17;45.40;;;16.20;99.90;;;;;;5030532;28;20920;-75
2023/09/17 05:36:32;;;;;;;63.07;45.00;;;16.20;99.90;;;;;;5060865;28;20571;-76
2023/09/17 05:38:58;;;;;;;66.45;45.90;;;16.20;99.90;;;;;;5037220;28;20769;-75
2023/09/17 05:41:23;;;;;;;70.00;45.65;;;16.00;99.90;;;;;;5048854;28;20556;-76
2023/09/17 05:43:49;;;;;;;70.77;47.80;;;16.10;99.90;;;;;;5031240;28;20785;-76
2023/09/17 05:46:15;;;;;;;70.85;47.38;;;16.30;99.90;;;;;;5030868;28;20425;-75
2023/09/17 05:48:40;;;;;;;68.00;47.28;;;16.30;99.90;;;;;;5030734;28;20423;-75
2023/09/17 05:51:07;;;;;;;63.60;46.08;;;16.20;99.90;;;;;;5051703;28;20426;-75
2023/09/17 05:53:33;;;;;;;69.80;47.47;;;16.10;99.90;;;;;;5047143;28;20471;-75
2023/09/17 05:56:01;;;;;;;64.95;46.08;;;16.40;99.90;;;;;;5047218;28;20417;-75
2023/09/17 05:58:27;;;;;;;66.70;47.17;;;16.30;99.90;;;;;;5039024;28;20950;-75
2023/09/17 06:00:53;;;;;;;69.87;45.97;;;16.30;99.90;;;;;;5021932;28;20456;-75
2023/09/17 06:03:19;;;;;;;68.22;46.90;;;16.50;99.90;;;;;;5054558;28;20424;-75
2023/09/17 06:05:45;;;;;;;66.18;46.47;;;16.50;99.90;;;;;;5047503;28;20429;-75
2023/09/17 06:08:11;;;;;;;65.40;47.20;;;16.30;99.90;;;;;;5031114;28;20421;-74
2023/09/17 06:10:36;;;;;;;63.67;46.55;;;16.30;99.90;;;;;;5049016;28;20421;-74
2023/09/17 06:13:03;;;;;;;63.43;45.77;;;16.70;99.90;;;;;;5046933;28;20422;-75
2023/09/17 06:15:28;;;;;;;66.20;47.20;;;16.30;99.90;;;;;;5031426;28;20506;-74
2023/09/17 06:17:54;;;;;;;61.97;44.88;;;16.50;99.90;;;;;;5042237;28;20504;-74
2023/09/17 06:20:20;;;;;;;61.92;45.60;;;16.60;99.90;;;;;;5046654;28;20413;-74
2023/09/17 06:22:48;;;;;;;62.37;45.53;;;16.40;99.90;;;;;;5054128;28;20483;-74
2023/09/17 06:25:14;;;;;;;61.70;45.40;;;16.50;99.90;;;;;;5052668;28;20423;-73
2023/09/17 06:27:39;;;;;;;59.67;45.57;;;16.60;99.90;;;;;;5049084;28;20415;-74
2023/09/17 06:30:06;;;;;;;62.27;44.43;;;16.60;99.90;;;;;;5012482;28;20413;-74
2023/09/17 06:32:32;;;;;;;58.97;44.42;;;16.80;99.90;;;;;;5028832;28;20425;-74
2023/09/17 06:34:57;;;;;;;56.92;43.65;;;16.80;99.90;;;;;;5048964;28;20856;-75
2023/09/17 06:37:23;;;;;;;58.33;44.17;;;16.50;99.90;;;;;;5030763;28;20427;-75
2023/09/17 06:39:49;;;;;;;59.13;44.80;;;16.90;99.90;;;;;;5023175;28;20781;-75
2023/09/17 06:42:15;;;;;;;59.63;43.20;;;16.90;99.90;;;;;;5048767;28;20417;-75
2023/09/17 06:44:40;;;;;;;56.03;43.45;;;16.90;99.90;;;;;;5048702;28;20633;-76
2023/09/17 06:47:06;;;;;;;53.00;43.33;;;16.90;99.90;;;;;;5048365;28;20410;-76
2023/09/17 06:49:32;;;;;;;54.23;41.60;;;16.90;99.90;;;;;;5063692;28;20425;-75
2023/09/17 06:51:57;;;;;;;50.93;41.17;;;16.80;99.90;;;;;;5047226;28;20420;-75
2023/09/17 06:54:23;;;;;;;51.40;40.50;;;17.10;99.90;;;;;;5035799;28;20940;-76
2023/09/17 06:56:52;;;;;;;49.70;39.47;;;17.10;99.90;;;;;;5032392;28;20453;-76
2023/09/17 06:59:18;;;;;;;50.67;38.83;;;17.30;99.90;;;;;;5035722;28;20449;-75
2023/09/17 07:01:45;;;;;;;49.00;38.03;;;17.20;99.90;;;;;;5034310;28;20421;-75
2023/09/17 07:04:11;;;;;;;42.13;35.88;;;17.50;99.90;;;;;;5025016;28;20427;-75
2023/09/17 07:06:37;;;;;;;42.80;36.95;;;17.50;99.90;;;;;;5061876;28;20460;-75
2023/09/17 07:09:03;;;;;;;41.50;34.53;;;17.60;99.90;;;;;;5065352;28;20455;-75
2023/09/17 07:11:29;;;;;;;39.07;33.77;;;17.50;99.90;;;;;;5068246;28;20470;-76
2023/09/17 07:13:56;;;;;;;40.00;33.00;;;17.40;99.90;;;;;;5057814;28;20969;-75
2023/09/17 07:16:23;;;;;;;38.95;32.88;;;17.70;99.90;;;;;;5043992;28;20423;-77
2023/09/17 07:18:49;;;;;;;40.08;33.97;;;17.60;99.90;;;;;;5052934;28;20432;-76
2023/09/17 07:21:15;;;;;;;39.67;34.85;;;17.70;99.90;;;;;;5052538;28;20408;-76
2023/09/17 07:23:42;;;;;;;42.90;34.22;;;17.60;99.90;;;;;;5017872;28;20426;-76
2023/09/17 07:26:09;;;;;;;38.90;33.70;;;17.60;99.90;;;;;;5048885;28;20428;-76
2023/09/17 07:28:35;;;;;;;39.10;33.17;;;17.50;99.90;;;;;;5049558;28;20464;-76
2023/09/17 07:31:01;;;;;;;38.38;33.50;;;17.70;99.90;;;;;;5017237;28;20432;-76
2023/09/17 07:33:27;;;;;;;39.47;33.05;;;17.10;99.90;;;;;;5048323;28;20433;-75
2023/09/17 07:35:52;;;;;;;37.20;33.17;;;17.60;99.90;;;;;;5065800;28;20417;-75
2023/09/17 07:38:18;;;;;;;37.67;32.43;;;17.60;99.90;;;;;;5036834;28;20409;-75
2023/09/17 07:40:45;;;;;;;38.35;32.80;;;17.60;99.90;;;;;;5066196;28;20438;-75
2023/09/17 07:43:11;;;;;;;38.15;31.85;;;17.70;99.90;;;;;;5035847;28;20437;-75
2023/09/17 07:45:37;;;;;;;38.08;31.85;;;17.70;99.90;;;;;;5048714;28;20499;-75
2023/09/17 07:48:06;;;;;;;34.03;29.92;;;17.70;99.90;;;;;;5056170;28;20489;-75
2023/09/17 07:50:31;;;;;;;34.38;30.65;;;17.60;99.90;;;;;;5055127;28;20911;-75
2023/09/17 07:52:57;;;;;;;35.42;29.85;;;17.80;99.90;;;;;;5059841;28;20423;-75
2023/09/17 07:55:23;;;;;;;35.53;29.93;;;17.60;99.90;;;;;;5052130;28;20471;-75
2023/09/17 07:57:49;;;;;;;34.78;30.98;;;17.70;99.90;;;;;;5050330;28;20421;-75
2023/09/17 08:00:15;;;;;;;35.08;30.45;;;18.00;99.90;;;;;;5031250;28;20777;-75
2023/09/17 08:02:44;;;;;;;39.25;31.60;;;17.70;99.90;;;;;;5053284;28;20429;-75
2023/09/17 08:05:11;;;;;;;38.42;31.55;;;17.90;99.90;;;;;;5051605;28;20426;-76
2023/09/17 08:07:36;;;;;;;32.85;29.23;;;17.90;99.90;;;;;;5062963;28;20415;-75
2023/09/17 08:10:06;;;;;;;33.72;30.08;;;17.70;99.90;;;;;;5054197;28;20601;-76
2023/09/17 08:12:32;;;;;;;35.17;29.48;;;17.60;99.90;;;;;;5047736;28;20440;-75
2023/09/17 08:14:58;;;;;;;34.85;29.88;;;17.80;99.90;;;;;;5060597;28;20452;-75
2023/09/17 08:17:25;;;;;;;31.80;28.40;;;17.80;99.90;;;;;;5067322;28;20419;-76
2023/09/17 08:19:51;;;;;;;32.70;29.20;;;17.70;99.90;;;;;;5056385;28;20781;-75
2023/09/17 08:22:17;;;;;;;31.00;27.60;;;17.90;99.90;;;;;;5033732;28;20421;-75
2023/09/17 08:24:43;;;;;;;32.40;28.90;;;17.90;99.90;;;;;;5046902;28;21056;-75
2023/09/17 08:27:09;;;;;;;34.30;29.65;;;18.00;99.90;;;;;;5034577;28;20424;-75
2023/09/17 08:29:35;;;;;;;32.05;28.17;;;17.70;99.90;;;;;;5032296;28;20432;-75
2023/09/17 08:32:01;;;;;;;35.47;29.95;;;18.10;99.90;;;;;;5045810;28;20774;-76
2023/09/17 08:34:27;;;;;;;34.88;28.33;;;18.00;99.90;;;;;;5034907;28;20433;-76
2023/09/17 08:36:53;;;;;;;33.47;28.52;;;17.80;99.90;;;;;;5053910;28;20951;-75
2023/09/17 08:39:20;;;;;;;33.47;29.65;;;17.60;99.90;;;;;;5051628;28;20458;-75
2023/09/17 08:41:47;;;;;;;37.08;30.98;;;17.80;99.90;;;;;;5050864;28;20397;-75
2023/09/17 08:44:14;;;;;;;34.90;30.17;;;17.60;99.90;;;;;;5051677;28;20508;-76
2023/09/17 08:46:40;;;;;;;35.30;30.88;;;17.90;99.90;;;;;;5018679;28;20420;-76
2023/09/17 08:49:06;;;;;;;34.60;30.85;;;17.60;99.90;;;;;;5065658;28;20431;-77
2023/09/17 08:51:37;;;;;;;38.00;31.77;;;17.70;99.90;;;;;;5031247;28;20432;-76
2023/09/17 08:54:11;;;;;;;38.45;32.65;;;17.90;99.90;;;;;;5039350;28;20419;-76
2023/09/17 08:56:42;;;;;;;40.03;33.47;;;18.00;99.90;;;;;;5049207;28;20416;-76
2023/09/17 08:59:12;;;;;;;39.42;32.80;;;18.00;99.90;;;;;;5048002;28;20421;-77
2023/09/17 09:01:42;;;;;;;37.28;31.45;;;18.00;99.90;;;;;;5033979;28;20483;-78
2023/09/17 09:04:09;;;;;;;34.75;30.23;;;18.00;99.90;;;;;;5031885;28;20439;-76
2023/09/17 09:06:35;;;;;;;34.97;29.77;;;17.90;99.90;;;;;;5047661;28;20421;-78
2023/09/17 09:09:05;;;;;;;34.90;29.97;;;17.80;99.90;;;;;;5046111;28;20425;-77
2023/09/17 09:11:34;;;;;;;33.63;29.95;;;17.90;99.90;;;;;;5032247;28;20923;-77
2023/09/17 09:14:03;;;;;;;34.30;29.08;;;18.10;99.90;;;;;;5013960;28;20920;-77
2023/09/17 09:16:32;;;;;;;36.70;29.77;;;18.10;99.90;;;;;;5045681;28;20777;-78
2023/09/17 09:18:59;;;;;;;34.20;28.38;;;18.20;99.90;;;;;;5034149;28;20430;-77
2023/09/17 09:21:24;;;;;;;33.83;28.80;;;18.20;99.90;;;;;;5042717;28;20483;-77
2023/09/17 09:23:50;;;;;;;34.40;29.63;;;18.00;99.90;;;;;;5048895;28;20431;-74
2023/09/17 09:26:16;;;;;;;36.28;29.85;;;17.90;99.90;;;;;;5055978;28;20501;-75
2023/09/17 09:28:41;;;;;;;36.20;28.92;;;18.20;99.90;;;;;;5045755;28;20404;-75
2023/09/17 09:31:07;;;;;;;32.17;28.55;;;18.10;99.90;;;;;;5030938;28;20509;-75
2023/09/17 09:33:34;;;;;;;35.47;29.70;;;18.00;99.90;;;;;;5048041;28;20421;-73
2023/09/17 09:36:00;;;;;;;37.80;30.83;;;17.80;99.90;;;;;;5034984;28;20441;-74
2023/09/17 09:38:28;;;;;;;37.97;31.92;;;18.20;99.90;;;;;;5047776;28;20574;-74
2023/09/17 09:40:54;;;;;;;37.13;31.13;;;18.00;99.90;;;;;;5045449;28;20432;-74
2023/09/17 09:43:32;;;;;;;41.97;31.73;;;17.80;99.90;;;;;;5047381;28;20427;-74
2023/09/17 09:46:04;;;;;;;38.42;31.38;;;17.60;99.90;;;;;;5049020;28;20448;-75
2023/09/17 09:48:30;;;;;;;42.28;33.05;;;17.70;99.90;;;;;;5047567;28;20420;-74
2023/09/17 09:50:56;;;;;;;40.28;34.40;;;17.60;99.90;;;;;;5049909;28;20417;-75
2023/09/17 09:53:22;;;;;;;43.88;36.53;;;17.60;99.90;;;;;;5064608;28;20431;-74
2023/09/17 09:55:48;;;;;;;45.70;35.70;;;17.70;99.90;;;;;;5044081;28;20594;-74
2023/09/17 09:58:14;;;;;;;44.03;36.53;;;17.70;99.90;;;;;;5035278;28;20428;-74
2023/09/17 10:00:44;;;;;;;42.17;36.13;;;17.70;99.90;;;;;;5052048;28;20425;-74
2023/09/17 10:03:11;;;;;;;43.27;36.70;;;17.70;99.90;;;;;;5042052;28;20432;-74
2023/09/17 10:05:39;;;;;;;44.47;36.07;;;17.60;99.90;;;;;;5029895;28;20440;-74
2023/09/17 10:08:11;;;;;;;41.88;35.90;;;17.70;99.90;;;;;;5047519;28;20429;-74
2023/09/17 10:10:37;;;;;;;40.90;35.03;;;18.00;99.90;;;;;;5051984;28;20504;-73
2023/09/17 10:13:06;;;;;;;42.53;35.67;;;17.80;99.90;;;;;;5020328;28;20425;-73
2023/09/17 10:15:36;;;;;;;43.47;36.60;;;17.80;99.90;;;;;;5043618;28;20931;-74
2023/09/17 10:18:04;;;;;;;45.10;37.60;;;18.00;99.90;;;;;;5052237;28;20512;-74
2023/09/17 10:20:30;;;;;;;44.30;37.40;;;17.80;99.90;;;;;;5048422;28;20432;-74
2023/09/17 10:22:58;;;;;;;44.63;38.35;;;17.90;99.90;;;;;;5054010;28;20963;-75
2023/09/17 10:25:26;;;;;;;50.33;38.70;;;18.30;99.90;;;;;;5067977;28;20413;-75
2023/09/17 10:27:52;;;;;;;45.08;36.88;;;18.60;99.90;;;;;;5063090;28;20910;-76
2023/09/17 10:30:20;;;;;;;43.78;36.28;;;18.00;99.90;;;;;;5045980;28;20425;-76
2023/09/17 10:32:47;;;;;;;38.67;33.85;;;18.30;99.90;;;;;;5054591;28;20571;-76
2023/09/17 10:35:14;;;;;;;37.35;32.85;;;18.50;99.90;;;;;;5051667;28;20483;-76
2023/09/17 10:37:41;;;;;;;38.45;32.75;;;18.50;99.90;;;;;;5049126;28;20425;-76
2023/09/17 10:40:09;;;;;;;37.13;31.40;;;18.50;99.90;;;;;;5042823;28;20499;-76
2023/09/17 10:42:38;;;;;;;35.97;31.07;;;18.50;99.90;;;;;;5053273;28;20428;-76
2023/09/17 10:45:07;;;;;;;37.55;31.23;;;18.60;99.90;;;;;;5075628;28;20800;-76
2023/09/17 10:47:36;;;;;;;32.40;28.73;;;18.30;99.90;;;;;;5049435;28;20422;-76
2023/09/17 10:50:05;;;;;;;37.15;29.88;;;18.70;99.90;;;;;;5043223;28;20958;-76
2023/09/17 10:52:32;;;;;;;35.55;30.95;;;18.70;99.90;;;;;;5051303;28;20430;-76
2023/09/17 10:54:59;;;;;;;33.70;29.43;;;18.40;99.90;;;;;;5067296;28;20508;-76
2023/09/17 10:57:35;;;;;;;37.58;31.60;;;18.50;99.90;;;;;;5074343;28;20421;-76
2023/09/17 11:00:04;;;;;;;37.40;31.85;;;18.40;99.90;;;;;;5035837;28;20427;-75
2023/09/17 11:02:34;;;;;;;39.30;33.28;;;18.70;99.90;;;;;;5049650;28;20495;-75
2023/09/17 11:05:04;;;;;;;38.97;33.17;;;18.40;99.90;;;;;;5046562;28;20433;-75
2023/09/17 11:07:31;;;;;;;42.97;33.85;;;18.40;99.90;;;;;;5082459;28;20483;-76
2023/09/17 11:09:58;;;;;;;43.53;35.13;;;18.50;99.90;;;;;;5035726;28;20479;-75
2023/09/17 11:12:24;;;;;;;43.53;36.30;;;18.30;99.90;;;;;;5060797;28;20499;-76
2023/09/17 11:14:51;;;;;;;46.65;37.00;;;18.30;99.90;;;;;;5054528;28;20439;-75
2023/09/17 11:17:18;;;;;;;41.67;35.83;;;18.30;99.90;;;;;;5047680;28;20421;-74
2023/09/17 11:19:44;;;;;;;45.47;36.80;;;18.50;99.90;;;;;;5051045;28;20467;-75
2023/09/17 11:22:12;;;;;;;42.60;34.58;;;18.80;99.90;;;;;;5051216;28;20413;-75
2023/09/17 11:24:38;;;;;;;43.55;35.55;;;18.90;99.90;;;;;;5049049;28;20500;-76
2023/09/17 11:27:05;;;;;;;40.85;33.85;;;18.90;99.90;;;;;;5043265;28;20499;-76
2023/09/17 11:29:42;;;;;;;41.92;34.50;;;19.40;99.90;;;;;;5052501;28;20425;-76
2023/09/17 11:32:08;;;;;;;39.20;32.08;;;19.00;99.90;;;;;;5016194;28;20444;-76
2023/09/17 11:34:35;;;;;;;37.03;31.88;;;18.30;99.90;;;;;;5036017;28;20458;-78
2023/09/17 11:37:06;;;;;;;38.45;31.85;;;19.10;99.90;;;;;;5066280;28;20788;-77
2023/09/17 11:39:36;;;;;;;36.92;30.67;;;19.30;99.90;;;;;;5009300;28;20421;-78
2023/09/17 11:42:03;;;;;;;35.40;29.85;;;19.00;99.90;;;;;;5042055;28;20425;-78
2023/09/17 11:44:34;;;;;;;37.85;30.10;;;19.10;99.90;;;;;;5030578;28;20438;-78
2023/09/17 11:47:01;;;;;;;36.67;30.27;;;19.10;99.90;;;;;;5033799;28;20454;-80
2023/09/17 11:49:28;;;;;;;36.42;30.40;;;19.40;99.90;;;;;;5041248;28;20776;-79
2023/09/17 11:51:57;;;;;;;34.65;29.80;;;19.20;99.90;;;;;;5049673;28;20411;-77
2023/09/17 11:54:25;;;;;;;35.50;30.50;;;18.90;99.90;;;;;;5035141;28;20436;-82
2023/09/17 11:56:53;;;;;;;33.83;29.33;;;19.10;99.90;;;;;;5049285;28;20428;-82
2023/09/17 11:59:20;;;;;;;35.03;30.75;;;19.80;99.90;;;;;;5051253;28;20429;-83
2023/09/17 12:01:54;;;;;;;35.30;29.08;;;19.30;99.90;;;;;;5047237;28;20428;-82
2023/09/17 12:04:29;;;;;;;33.22;28.83;;;19.40;99.90;;;;;;5038475;28;20449;-82
2023/09/17 12:06:58;;;;;;;31.75;27.95;;;19.70;99.90;;;;;;5030929;28;20477;-79
2023/09/17 12:11:58;;;;;;;29.13;25.27;;;19.70;99.90;;;;;;5048232;28;20501;-79
2023/09/17 12:14:24;;;;;;;28.23;24.97;;;19.50;99.90;;;;;;5010889;28;20605;-80
2023/09/17 12:16:51;;;;;;;27.27;24.15;;;19.60;99.90;;;;;;5036926;28;20741;-80
2023/09/17 12:19:18;;;;;;;29.20;25.58;;;19.70;99.90;;;;;;5017269;28;20523;-79
2023/09/17 12:21:50;;;;;;;27.85;24.35;;;19.70;99.90;;;;;;5043099;28;20876;-79
2023/09/17 12:25:03;;;;;;;28.70;24.95;;;19.80;99.90;;;;;;5037594;28;20504;-78
2023/09/17 12:27:34;;;;;;;30.63;25.17;;;19.90;99.90;;;;;;5046709;28;20776;-82
2023/09/17 12:30:06;;;;;;;27.52;24.63;;;20.00;99.90;;;;;;5065855;28;20417;-80